createdAt,value
2018-02-23T00:00:55.354Z,27.00
2018-02-23T00:01:55.310Z,29.00
2018-02-23T00:02:55.281Z,28.30
2018-02-23T00:03:55.241Z,31.70
2018-02-23T00:04:55.207Z,30.60
2018-02-23T00:05:55.166Z,25.40
2018-02-23T00:06:55.101Z,27.80
2018-02-23T00:07:55.055Z,30.50
2018-02-23T00:08:55.020Z,27.90
2018-02-23T00:09:54.991Z,27.00
2018-02-23T00:10:54.947Z,30.40
2018-02-23T00:11:54.891Z,32.60
2018-02-23T00:12:54.892Z,28.60
2018-02-23T00:13:54.804Z,30.10
2018-02-23T00:14:54.759Z,27.40
2018-02-23T00:15:54.733Z,29.00
2018-02-23T00:16:54.713Z,29.50
2018-02-23T00:17:54.634Z,29.70
2018-02-23T00:18:54.588Z,30.20
2018-02-23T00:19:54.560Z,34.40
2018-02-23T00:20:54.509Z,33.10
2018-02-23T00:21:54.471Z,36.30
2018-02-23T00:22:54.431Z,36.40
2018-02-23T00:23:54.388Z,30.30
2018-02-23T00:24:54.363Z,29.10
2018-02-23T00:25:54.302Z,28.50
2018-02-23T00:26:54.249Z,28.10
2018-02-23T00:27:54.209Z,28.40
2018-02-23T00:28:54.168Z,25.20
2018-02-23T00:29:54.123Z,28.80
2018-02-23T00:30:54.090Z,28.00
2018-02-23T00:31:54.051Z,27.90
2018-02-23T00:32:53.993Z,25.80
2018-02-23T00:33:53.950Z,23.40
2018-02-23T00:34:53.910Z,27.40
2018-02-23T00:35:53.874Z,24.40
2018-02-23T00:36:53.834Z,27.70
2018-02-23T00:37:53.781Z,25.40
2018-02-23T00:38:53.742Z,23.70
2018-02-23T00:39:53.700Z,22.60
2018-02-23T00:40:53.656Z,24.60
2018-02-23T00:41:53.611Z,23.70
2018-02-23T00:42:53.583Z,24.00
2018-02-23T00:43:53.539Z,28.50
2018-02-23T00:44:53.486Z,23.50
2018-02-23T00:45:53.441Z,28.10
2018-02-23T00:46:53.401Z,24.70
2018-02-23T00:47:53.364Z,24.70
2018-02-23T00:48:53.311Z,26.80
2018-02-23T00:49:53.279Z,23.00
2018-02-23T00:50:53.229Z,27.00
2018-02-23T00:51:53.191Z,21.90
2018-02-23T00:52:53.143Z,26.80
2018-02-23T00:53:53.099Z,23.10
2018-02-23T00:54:53.057Z,20.60
2018-02-23T00:55:53.014Z,26.50
2018-02-23T00:56:52.972Z,24.30
2018-02-23T00:57:52.927Z,24.40
2018-02-23T00:58:52.904Z,24.90
2018-02-23T00:59:52.847Z,26.50
2018-02-23T01:00:52.803Z,26.00
2018-02-23T01:01:52.775Z,23.50
2018-02-23T01:02:52.715Z,27.20
2018-02-23T01:03:52.700Z,26.40
2018-02-23T01:04:52.630Z,27.60
2018-02-23T01:05:52.588Z,25.90
2018-02-23T01:06:52.545Z,25.30
2018-02-23T01:07:52.512Z,26.00
2018-02-23T01:08:52.460Z,23.30
2018-02-23T01:09:52.461Z,22.20
2018-02-23T01:10:52.373Z,21.40
2018-02-23T01:11:52.351Z,22.90
2018-02-23T01:12:52.291Z,22.10
2018-02-23T01:13:52.248Z,22.90
2018-02-23T01:14:52.214Z,24.10
2018-02-23T01:15:52.176Z,22.80
2018-02-23T01:16:52.127Z,21.90
2018-02-23T01:17:52.098Z,25.40
2018-02-23T01:18:52.033Z,22.80
2018-02-23T01:19:51.995Z,25.20
2018-02-23T01:20:51.955Z,25.40
2018-02-23T01:21:51.906Z,26.20
2018-02-23T01:22:51.864Z,22.10
2018-02-23T01:23:51.821Z,26.30
2018-02-23T01:24:51.778Z,23.70
2018-02-23T01:25:51.735Z,22.00
2018-02-23T01:26:51.693Z,21.70
2018-02-23T01:27:51.654Z,24.50
2018-02-23T01:28:51.612Z,21.70
2018-02-23T01:29:51.612Z,22.80
2018-02-23T01:30:51.523Z,22.90
2018-02-23T01:31:51.487Z,22.20
2018-02-23T01:32:51.445Z,24.30
2018-02-23T01:33:51.408Z,23.50
2018-02-23T01:34:51.359Z,26.00
2018-02-23T01:35:51.330Z,26.10
2018-02-23T01:36:51.266Z,23.40
2018-02-23T01:37:51.229Z,23.40
2018-02-23T01:38:51.181Z,23.60
2018-02-23T01:39:51.140Z,25.40
2018-02-23T01:40:51.096Z,22.60
2018-02-23T01:41:51.079Z,23.90
2018-02-23T01:42:51.011Z,25.60
2018-02-23T01:43:50.969Z,23.80
2018-02-23T01:44:50.931Z,23.00
2018-02-23T01:45:50.934Z,22.20
2018-02-23T01:46:50.840Z,23.30
2018-02-23T01:47:50.829Z,21.40
2018-02-23T01:48:50.754Z,20.10
2018-02-23T01:49:50.788Z,22.90
2018-02-23T01:50:50.677Z,22.30
2018-02-23T01:51:50.632Z,20.70
2018-02-23T01:52:50.589Z,22.90
2018-02-23T01:53:50.547Z,20.90
2018-02-23T01:54:50.523Z,24.60
2018-02-23T01:55:50.462Z,21.80
2018-02-23T01:56:50.417Z,21.40
2018-02-23T01:57:50.383Z,23.00
2018-02-23T01:58:50.336Z,23.80
2018-02-23T01:59:50.296Z,23.20
2018-02-23T02:00:50.244Z,20.60
2018-02-23T02:01:50.214Z,26.40
2018-02-23T02:02:50.163Z,21.80
2018-02-23T02:03:50.122Z,24.10
2018-02-23T02:04:50.085Z,22.00
2018-02-23T02:05:50.030Z,23.30
2018-02-23T02:06:50.007Z,25.20
2018-02-23T02:07:49.954Z,25.90
2018-02-23T02:08:49.905Z,25.60
2018-02-23T02:09:49.862Z,24.40
2018-02-23T02:10:49.821Z,23.70
2018-02-23T02:11:49.775Z,24.20
2018-02-23T02:12:49.739Z,24.10
2018-02-23T02:13:49.702Z,26.50
2018-02-23T02:14:49.649Z,24.40
2018-02-23T02:15:49.662Z,28.10
2018-02-23T02:16:49.568Z,28.60
2018-02-23T02:17:49.524Z,25.80
2018-02-23T02:18:49.488Z,28.10
2018-02-23T02:19:49.437Z,26.40
2018-02-23T02:20:49.395Z,27.60
2018-02-23T02:21:49.358Z,27.40
2018-02-23T02:22:49.312Z,33.10
2018-02-23T02:23:49.264Z,26.30
2018-02-23T02:24:49.228Z,26.70
2018-02-23T02:25:49.182Z,27.40
2018-02-23T02:26:49.136Z,26.40
2018-02-23T02:27:49.109Z,30.50
2018-02-23T02:28:49.048Z,26.90
2018-02-23T02:29:49.019Z,29.20
2018-02-23T02:30:48.965Z,30.60
2018-02-23T02:31:48.922Z,27.50
2018-02-23T02:32:48.876Z,29.50
2018-02-23T02:33:48.871Z,27.00
2018-02-23T02:34:48.822Z,28.70
2018-02-23T02:35:48.757Z,25.90
2018-02-23T02:36:48.707Z,27.10
2018-02-23T02:37:48.697Z,28.70
2018-02-23T02:38:48.626Z,31.20
2018-02-23T02:39:48.615Z,29.60
2018-02-23T02:40:48.539Z,35.00
2018-02-23T02:41:48.527Z,33.90
2018-02-23T02:42:48.462Z,34.60
2018-02-23T02:43:48.411Z,33.50
2018-02-23T02:44:48.369Z,34.00
2018-02-23T02:45:48.331Z,35.20
2018-02-23T02:46:48.287Z,35.00
2018-02-23T02:47:48.250Z,38.20
2018-02-23T02:48:48.193Z,37.00
2018-02-23T02:49:48.150Z,37.40
2018-02-23T02:50:48.109Z,37.90
2018-02-23T02:51:48.098Z,38.30
2018-02-23T02:52:48.043Z,38.40
2018-02-23T02:53:48.012Z,41.30
2018-02-23T02:54:47.973Z,41.80
2018-02-23T02:55:47.913Z,40.20
2018-02-23T02:56:47.851Z,38.40
2018-02-23T02:57:47.811Z,42.80
2018-02-23T02:58:47.766Z,40.50
2018-02-23T02:59:47.723Z,43.40
2018-02-23T03:00:47.680Z,43.50
2018-02-23T03:01:47.637Z,45.80
2018-02-23T03:02:47.594Z,41.50
2018-02-23T03:03:47.564Z,42.60
2018-02-23T03:04:47.506Z,41.30
2018-02-23T03:05:47.465Z,38.80
2018-02-23T03:06:47.420Z,40.90
2018-02-23T03:07:47.385Z,42.40
2018-02-23T03:08:47.335Z,43.70
2018-02-23T03:09:47.294Z,40.50
2018-02-23T03:10:47.255Z,41.90
2018-02-23T03:11:47.208Z,43.50
2018-02-23T03:12:47.178Z,42.30
2018-02-23T03:13:47.126Z,49.30
2018-02-23T03:14:47.098Z,42.90
2018-02-23T03:15:47.052Z,42.50
2018-02-23T03:16:46.992Z,41.80
2018-02-23T03:17:46.949Z,42.80
2018-02-23T03:18:46.907Z,47.30
2018-02-23T03:19:46.865Z,45.30
2018-02-23T03:20:46.822Z,45.10
2018-02-23T03:21:46.781Z,45.10
2018-02-23T03:22:46.737Z,46.60
2018-02-23T03:23:46.714Z,47.60
2018-02-23T03:24:46.658Z,49.20
2018-02-23T03:25:46.640Z,42.60
2018-02-23T03:26:46.594Z,47.10
2018-02-23T03:27:46.534Z,46.30
2018-02-23T03:28:46.480Z,44.60
2018-02-23T03:29:46.442Z,49.10
2018-02-23T03:30:46.394Z,49.50
2018-02-23T03:31:46.355Z,47.00
2018-02-23T03:32:46.315Z,38.50
2018-02-23T03:33:46.290Z,40.30
2018-02-23T03:34:46.245Z,43.60
2018-02-23T03:35:46.185Z,41.30
2018-02-23T03:36:46.139Z,44.80
2018-02-23T03:37:46.105Z,44.60
2018-02-23T03:38:46.113Z,43.10
2018-02-23T03:39:46.024Z,44.20
2018-02-23T03:40:45.986Z,43.20
2018-02-23T03:41:45.955Z,45.00
2018-02-23T03:42:45.884Z,44.10
2018-02-23T03:43:45.840Z,42.90
2018-02-23T03:44:45.797Z,46.20
2018-02-23T03:45:45.752Z,45.80
2018-02-23T03:46:45.723Z,45.60
2018-02-23T03:47:45.665Z,49.80
2018-02-23T03:48:45.660Z,43.60
2018-02-23T03:49:45.580Z,44.90
2018-02-23T03:50:45.536Z,41.90
2018-02-23T03:51:45.510Z,42.60
2018-02-23T03:52:45.453Z,42.00
2018-02-23T03:53:45.409Z,42.80
2018-02-23T03:54:45.383Z,48.40
2018-02-23T03:55:45.856Z,43.70
2018-02-23T03:56:45.282Z,44.30
2018-02-23T03:57:45.246Z,44.40
2018-02-23T03:58:45.206Z,43.00
2018-02-23T03:59:45.153Z,41.10
2018-02-23T04:00:45.108Z,44.90
2018-02-23T04:01:45.480Z,47.90
2018-02-23T04:02:45.021Z,44.20
2018-02-23T04:03:44.982Z,40.20
2018-02-23T04:04:44.938Z,42.60
2018-02-23T04:05:44.894Z,42.10
2018-02-23T04:06:44.874Z,43.10
2018-02-23T04:07:44.807Z,47.80
2018-02-23T04:08:44.764Z,41.30
2018-02-23T04:09:44.740Z,46.60
2018-02-23T04:10:44.681Z,45.60
2018-02-23T04:11:44.676Z,45.00
2018-02-23T04:12:44.597Z,42.40
2018-02-23T04:13:44.552Z,39.60
2018-02-23T04:14:44.511Z,43.80
2018-02-23T04:15:44.467Z,40.60
2018-02-23T04:16:44.419Z,39.90
2018-02-23T04:17:44.386Z,39.90
2018-02-23T04:18:44.356Z,43.70
2018-02-23T04:19:44.336Z,43.80
2018-02-23T04:20:44.275Z,46.00
2018-02-23T04:21:44.206Z,44.30
2018-02-23T04:22:44.162Z,43.10
2018-02-23T04:23:44.151Z,41.40
2018-02-23T04:24:44.080Z,44.60
2018-02-23T04:25:44.037Z,43.20
2018-02-23T04:26:44.015Z,40.10
2018-02-23T04:27:43.951Z,40.00
2018-02-23T04:28:43.927Z,42.40
2018-02-23T04:29:43.863Z,43.00
2018-02-23T04:30:43.829Z,40.30
2018-02-23T04:31:43.812Z,42.20
2018-02-23T04:32:43.735Z,40.20
2018-02-23T04:33:43.711Z,46.30
2018-02-23T04:34:43.685Z,42.10
2018-02-23T04:35:43.623Z,40.10
2018-02-23T04:36:43.598Z,38.30
2018-02-23T04:37:43.550Z,41.10
2018-02-23T04:38:43.480Z,36.90
2018-02-23T04:39:43.445Z,45.40
2018-02-23T04:40:43.391Z,41.80
2018-02-23T04:41:43.346Z,41.90
2018-02-23T04:42:43.334Z,39.10
2018-02-23T04:43:43.267Z,36.60
2018-02-23T04:44:43.269Z,39.10
2018-02-23T04:45:43.191Z,38.90
2018-02-23T04:46:43.173Z,40.40
2018-02-23T04:47:43.147Z,42.70
2018-02-23T04:48:43.060Z,38.60
2018-02-23T04:49:43.006Z,43.30
2018-02-23T04:50:42.966Z,41.50
2018-02-23T04:51:42.919Z,39.60
2018-02-23T04:52:43.047Z,41.50
2018-02-23T04:53:42.833Z,45.30
2018-02-23T04:54:42.790Z,40.40
2018-02-23T04:55:42.747Z,38.80
2018-02-23T04:56:42.710Z,37.90
2018-02-23T04:57:42.688Z,37.60
2018-02-23T04:58:43.025Z,37.80
2018-02-23T04:59:42.600Z,42.60
2018-02-23T05:00:42.562Z,39.60
2018-02-23T05:01:42.492Z,39.30
2018-02-23T05:02:42.447Z,44.90
2018-02-23T05:03:42.443Z,42.10
2018-02-23T05:04:42.360Z,38.50
2018-02-23T05:05:42.346Z,38.30
2018-02-23T05:06:42.274Z,39.80
2018-02-23T05:07:42.235Z,38.20
2018-02-23T05:08:42.193Z,41.40
2018-02-23T05:09:42.159Z,38.90
2018-02-23T05:10:42.110Z,36.70
2018-02-23T05:11:42.096Z,37.40
2018-02-23T05:12:42.053Z,40.10
2018-02-23T05:13:41.973Z,44.10
2018-02-23T05:14:41.935Z,42.70
2018-02-23T05:15:41.896Z,39.20
2018-02-23T05:16:41.850Z,35.60
2018-02-23T05:17:41.815Z,39.20
2018-02-23T05:18:41.773Z,36.20
2018-02-23T05:19:41.717Z,35.00
2018-02-23T05:20:41.674Z,38.60
2018-02-23T05:21:41.645Z,36.80
2018-02-23T05:22:41.590Z,34.70
2018-02-23T05:23:41.559Z,34.90
2018-02-23T05:24:41.517Z,33.50
2018-02-23T05:25:41.488Z,35.20
2018-02-23T05:26:41.418Z,36.10
2018-02-23T05:27:41.375Z,35.70
2018-02-23T05:28:41.328Z,37.20
2018-02-23T05:29:41.306Z,34.40
2018-02-23T05:30:41.242Z,33.60
2018-02-23T05:31:41.199Z,36.50
2018-02-23T05:32:41.158Z,34.70
2018-02-23T05:33:41.115Z,34.50
2018-02-23T05:34:41.074Z,33.30
2018-02-23T05:35:41.045Z,33.80
2018-02-23T05:36:40.987Z,37.10
2018-02-23T05:37:40.956Z,31.20
2018-02-23T05:38:40.903Z,34.30
2018-02-23T05:39:40.874Z,34.10
2018-02-23T05:40:40.814Z,34.40
2018-02-23T05:41:40.777Z,33.90
2018-02-23T05:42:40.727Z,34.50
2018-02-23T05:43:40.715Z,31.90
2018-02-23T05:44:40.643Z,32.40
2018-02-23T05:45:40.600Z,31.80
2018-02-23T05:46:40.561Z,31.30
2018-02-23T05:47:40.529Z,34.80
2018-02-23T05:48:40.512Z,34.70
2018-02-23T05:49:40.441Z,31.00
2018-02-23T05:50:40.386Z,32.70
2018-02-23T05:51:40.351Z,36.00
2018-02-23T05:52:40.329Z,29.50
2018-02-23T05:53:40.256Z,32.40
2018-02-23T05:54:40.216Z,35.30
2018-02-23T05:55:40.186Z,30.60
2018-02-23T05:56:40.134Z,33.10
2018-02-23T05:57:40.084Z,35.20
2018-02-23T05:58:40.050Z,32.40
2018-02-23T05:59:39.999Z,26.80
2018-02-23T06:00:39.969Z,32.40
2018-02-23T06:01:39.913Z,27.80
2018-02-23T06:02:39.913Z,30.80
2018-02-23T06:03:39.883Z,32.10
2018-02-23T06:04:39.795Z,30.10
2018-02-23T06:05:39.744Z,29.10
2018-02-23T06:06:39.698Z,30.30
2018-02-23T06:07:39.659Z,31.20
2018-02-23T06:08:39.647Z,31.30
2018-02-23T06:09:39.571Z,31.20
2018-02-23T06:10:39.526Z,32.60
2018-02-23T06:11:39.485Z,31.00
2018-02-23T06:12:39.439Z,29.50
2018-02-23T06:13:39.399Z,32.50
2018-02-23T06:14:39.354Z,28.90
2018-02-23T06:15:39.311Z,31.30
2018-02-23T06:16:39.279Z,30.80
2018-02-23T06:17:39.224Z,30.80
2018-02-23T06:18:39.181Z,29.90
2018-02-23T06:19:39.141Z,33.50
2018-02-23T06:20:39.097Z,33.10
2018-02-23T06:21:39.052Z,32.10
2018-02-23T06:22:39.050Z,31.00
2018-02-23T06:23:38.973Z,31.90
2018-02-23T06:24:38.925Z,32.80
2018-02-23T06:25:38.882Z,29.90
2018-02-23T06:26:38.851Z,29.50
2018-02-23T06:27:38.796Z,27.90
2018-02-23T06:28:38.751Z,31.90
2018-02-23T06:29:38.721Z,32.50
2018-02-23T06:30:38.669Z,31.20
2018-02-23T06:31:38.625Z,31.00
2018-02-23T06:32:38.580Z,31.40
2018-02-23T06:33:38.547Z,28.60
2018-02-23T06:34:38.499Z,31.90
2018-02-23T06:35:38.451Z,29.50
2018-02-23T06:36:38.410Z,30.90
2018-02-23T06:37:38.366Z,28.20
2018-02-23T06:38:38.325Z,29.20
2018-02-23T06:39:38.280Z,33.60
2018-02-23T06:40:38.237Z,30.20
2018-02-23T06:41:38.198Z,28.50
2018-02-23T06:42:38.151Z,28.50
2018-02-23T06:43:38.123Z,27.70
2018-02-23T06:44:38.068Z,28.10
2018-02-23T06:45:38.026Z,31.00
2018-02-23T06:46:37.980Z,29.20
2018-02-23T06:47:37.945Z,30.60
2018-02-23T06:48:37.895Z,31.80
2018-02-23T06:49:37.853Z,29.20
2018-02-23T06:50:37.810Z,31.80
2018-02-23T06:51:37.776Z,29.80
2018-02-23T06:52:37.724Z,30.10
2018-02-23T06:53:37.680Z,32.40
2018-02-23T06:54:37.639Z,30.30
2018-02-23T06:55:37.600Z,27.10
2018-02-23T06:56:37.552Z,30.70
2018-02-23T06:57:37.512Z,29.30
2018-02-23T06:58:37.471Z,29.30
2018-02-23T06:59:37.437Z,28.40
2018-02-23T07:00:37.384Z,27.90
2018-02-23T07:01:37.346Z,26.90
2018-02-23T07:02:37.302Z,31.10
2018-02-23T07:03:37.259Z,27.10
2018-02-23T07:04:37.216Z,27.40
2018-02-23T07:05:37.177Z,27.10
2018-02-23T07:06:37.134Z,29.30
2018-02-23T07:07:37.103Z,28.00
2018-02-23T07:08:37.051Z,31.30
2018-02-23T07:09:37.007Z,30.40
2018-02-23T07:10:36.969Z,31.60
2018-02-23T07:11:36.926Z,28.30
2018-02-23T07:12:36.884Z,27.20
2018-02-23T07:13:36.844Z,28.90
2018-02-23T07:14:36.814Z,25.70
2018-02-23T07:15:36.760Z,25.30
2018-02-23T07:16:36.721Z,26.10
2018-02-23T07:17:36.678Z,27.70
2018-02-23T07:18:36.639Z,27.50
2018-02-23T07:19:36.604Z,26.40
2018-02-23T07:20:36.579Z,28.50
2018-02-23T07:21:36.518Z,27.30
2018-02-23T07:22:36.481Z,25.10
2018-02-23T07:23:36.440Z,25.70
2018-02-23T07:24:36.399Z,23.90
2018-02-23T07:25:36.360Z,26.20
2018-02-23T07:26:36.319Z,30.10
2018-02-23T07:27:36.282Z,28.10
2018-02-23T07:28:36.240Z,24.90
2018-02-23T07:29:36.204Z,29.20
2018-02-23T07:30:36.162Z,25.60
2018-02-23T07:31:36.127Z,31.30
2018-02-23T07:32:36.086Z,26.60
2018-02-23T07:33:36.051Z,31.70
2018-02-23T07:34:36.017Z,27.50
2018-02-23T07:35:35.969Z,27.70
2018-02-23T07:36:35.929Z,31.00
2018-02-23T07:37:35.892Z,29.20
2018-02-23T07:38:35.855Z,26.10
2018-02-23T07:39:35.816Z,24.90
2018-02-23T07:40:35.777Z,26.90
2018-02-23T07:41:35.739Z,25.30
2018-02-23T07:42:35.762Z,26.50
2018-02-23T07:43:35.664Z,29.80
2018-02-23T07:44:35.629Z,26.20
2018-02-23T07:45:35.593Z,25.10
2018-02-23T07:46:35.553Z,27.40
2018-02-23T07:47:35.518Z,27.40
2018-02-23T07:48:35.483Z,24.90
2018-02-23T07:49:35.446Z,25.00
2018-02-23T07:50:35.408Z,24.60
2018-02-23T07:51:35.371Z,22.90
2018-02-23T07:52:35.335Z,27.50
2018-02-23T07:53:35.307Z,24.80
2018-02-23T07:54:35.264Z,22.80
2018-02-23T07:55:35.228Z,22.90
2018-02-23T07:56:35.192Z,25.80
2018-02-23T07:57:35.160Z,23.30
2018-02-23T07:58:35.122Z,19.80
2018-02-23T07:59:35.085Z,20.20
2018-02-23T08:00:35.052Z,19.90
2018-02-23T08:01:35.015Z,23.40
2018-02-23T08:02:34.981Z,21.80
2018-02-23T08:03:34.959Z,21.40
2018-02-23T08:04:34.956Z,20.60
2018-02-23T08:05:34.877Z,19.60
2018-02-23T08:06:34.841Z,20.20
2018-02-23T08:07:34.807Z,18.60
2018-02-23T08:08:34.775Z,20.40
2018-02-23T08:09:34.736Z,18.10
2018-02-23T08:10:34.702Z,20.50
2018-02-23T08:11:34.669Z,22.20
2018-02-23T08:12:34.634Z,17.70
2018-02-23T08:13:34.608Z,17.30
2018-02-23T08:14:34.566Z,18.80
2018-02-23T08:15:34.545Z,15.80
2018-02-23T08:16:34.498Z,16.90
2018-02-23T08:17:34.477Z,16.00
2018-02-23T08:18:34.432Z,18.00
2018-02-23T08:19:34.398Z,16.80
2018-02-23T08:20:34.365Z,15.00
2018-02-23T08:21:34.330Z,17.90
2018-02-23T08:22:34.299Z,12.90
2018-02-23T08:23:34.281Z,16.70
2018-02-23T08:24:34.231Z,15.50
2018-02-23T08:25:34.198Z,15.50
2018-02-23T08:26:34.166Z,13.40
2018-02-23T08:27:34.135Z,13.60
2018-02-23T08:28:34.102Z,15.00
2018-02-23T08:29:34.073Z,17.30
2018-02-23T08:30:34.036Z,15.50
2018-02-23T08:31:34.006Z,12.40
2018-02-23T08:32:33.973Z,13.90
2018-02-23T08:33:33.951Z,11.00
2018-02-23T08:34:33.907Z,11.30
2018-02-23T08:35:33.872Z,12.20
2018-02-23T08:36:33.841Z,12.60
2018-02-23T08:37:33.812Z,13.40
2018-02-23T08:38:33.780Z,10.00
2018-02-23T08:39:33.747Z,14.00
2018-02-23T08:40:33.725Z,10.40
2018-02-23T08:41:33.690Z,10.80
2018-02-23T08:42:33.655Z,9.90
2018-02-23T08:43:33.620Z,11.70
2018-02-23T08:44:33.588Z,10.20
2018-02-23T08:45:33.556Z,11.00
2018-02-23T08:46:33.524Z,13.90
2018-02-23T08:47:33.492Z,11.30
2018-02-23T08:48:33.470Z,9.20
2018-02-23T08:49:33.431Z,9.70
2018-02-23T08:50:33.398Z,11.80
2018-02-23T08:51:33.368Z,12.60
2018-02-23T08:52:33.346Z,9.80
2018-02-23T08:53:33.304Z,9.30
2018-02-23T08:54:33.274Z,9.20
2018-02-23T08:55:33.243Z,9.30
2018-02-23T08:56:33.209Z,12.10
2018-02-23T08:57:33.180Z,12.10
2018-02-23T08:58:33.153Z,9.10
2018-02-23T08:59:33.118Z,17.10
2018-02-23T09:00:33.085Z,10.10
2018-02-23T09:01:33.051Z,9.90
2018-02-23T09:02:33.021Z,9.90
2018-02-23T09:03:32.989Z,11.60
2018-02-23T09:04:32.960Z,9.20
2018-02-23T09:05:32.927Z,11.80
2018-02-23T09:06:32.919Z,10.90
2018-02-23T09:07:32.865Z,9.90
2018-02-23T09:08:32.834Z,12.10
2018-02-23T09:09:32.804Z,9.80
2018-02-23T09:10:32.772Z,11.90
2018-02-23T09:11:32.741Z,9.90
2018-02-23T09:12:32.711Z,10.90
2018-02-23T09:13:32.678Z,10.10
2018-02-23T09:14:32.649Z,12.50
2018-02-23T09:15:32.633Z,11.30
2018-02-23T09:16:32.587Z,11.90
2018-02-23T09:17:32.556Z,10.20
2018-02-23T09:18:32.527Z,12.90
2018-02-23T09:19:32.500Z,11.40
2018-02-23T09:20:32.465Z,12.00
2018-02-23T09:21:32.469Z,12.40
2018-02-23T09:22:32.407Z,10.80
2018-02-23T09:23:32.386Z,12.00
2018-02-23T09:24:32.349Z,14.10
2018-02-23T09:25:32.321Z,14.30
2018-02-23T09:26:32.290Z,13.40
2018-02-23T09:27:32.258Z,13.00
2018-02-23T09:28:32.229Z,13.30
2018-02-23T09:29:32.198Z,12.90
2018-02-23T09:30:32.173Z,13.60
2018-02-23T09:31:32.148Z,13.80
2018-02-23T09:32:32.118Z,10.00
2018-02-23T09:33:32.080Z,11.30
2018-02-23T09:34:32.065Z,9.60
2018-02-23T09:35:32.026Z,10.80
2018-02-23T09:36:31.993Z,14.10
2018-02-23T09:37:31.966Z,14.40
2018-02-23T09:38:31.938Z,10.80
2018-02-23T09:39:31.910Z,10.30
2018-02-23T09:40:31.878Z,12.50
2018-02-23T09:41:31.864Z,11.00
2018-02-23T09:42:31.820Z,12.70
2018-02-23T09:43:31.805Z,9.00
2018-02-23T09:44:31.759Z,12.50
2018-02-23T09:45:31.733Z,10.90
2018-02-23T09:46:31.703Z,12.40
2018-02-23T09:47:31.674Z,10.00
2018-02-23T09:48:31.646Z,9.00
2018-02-23T09:49:31.615Z,10.30
2018-02-23T09:50:31.594Z,11.30
2018-02-23T09:51:31.560Z,11.60
2018-02-23T09:52:31.530Z,9.10
2018-02-23T09:53:31.498Z,13.10
2018-02-23T09:54:31.471Z,9.60
2018-02-23T09:55:31.443Z,9.80
2018-02-23T09:56:31.415Z,12.40
2018-02-23T09:57:31.401Z,11.70
2018-02-23T09:58:31.357Z,10.70
2018-02-23T09:59:31.339Z,10.80
2018-02-23T10:00:31.299Z,11.10
2018-02-23T10:01:31.270Z,8.40
2018-02-23T10:02:31.242Z,11.80
2018-02-23T10:03:31.213Z,10.80
2018-02-23T10:04:31.198Z,9.70
2018-02-23T10:05:31.159Z,8.90
2018-02-23T10:06:31.129Z,11.10
2018-02-23T10:07:31.104Z,9.70
2018-02-23T10:08:31.071Z,10.60
2018-02-23T10:09:31.054Z,12.70
2018-02-23T10:10:31.020Z,14.40
2018-02-23T10:11:30.987Z,12.00
2018-02-23T10:12:30.970Z,12.10
2018-02-23T10:13:30.932Z,15.60
2018-02-23T10:14:30.912Z,11.60
2018-02-23T10:15:30.878Z,11.60
2018-02-23T10:16:30.848Z,9.30
2018-02-23T10:17:30.819Z,10.30
2018-02-23T10:18:30.797Z,13.40
2018-02-23T10:19:30.767Z,10.60
2018-02-23T10:20:30.735Z,10.40
2018-02-23T10:21:30.706Z,11.70
2018-02-23T10:22:30.681Z,12.00
2018-02-23T10:23:30.657Z,15.50
2018-02-23T10:24:30.625Z,17.10
2018-02-23T10:25:30.596Z,9.60
2018-02-23T10:26:30.581Z,11.00
2018-02-23T10:27:30.544Z,13.60
2018-02-23T10:28:30.516Z,11.50
2018-02-23T10:29:30.487Z,11.70
2018-02-23T10:30:30.462Z,13.60
2018-02-23T10:31:30.438Z,13.80
2018-02-23T10:32:30.416Z,13.30
2018-02-23T10:33:30.383Z,13.90
2018-02-23T10:34:30.394Z,11.30
2018-02-23T10:35:30.331Z,11.80
2018-02-23T10:36:30.306Z,13.80
2018-02-23T10:37:30.282Z,11.90
2018-02-23T10:38:30.253Z,13.70
2018-02-23T10:39:30.245Z,13.60
2018-02-23T10:40:30.202Z,12.50
2018-02-23T10:41:30.179Z,10.50
2018-02-23T10:42:30.155Z,11.40
2018-02-23T10:43:30.129Z,12.90
2018-02-23T10:44:30.100Z,10.90
2018-02-23T10:45:30.080Z,15.10
2018-02-23T10:46:30.056Z,13.00
2018-02-23T10:47:30.037Z,11.00
2018-02-23T10:48:30.004Z,12.10
2018-02-23T10:49:29.986Z,12.10
2018-02-23T10:50:29.954Z,11.00
2018-02-23T10:51:29.929Z,11.00
2018-02-23T10:52:29.905Z,11.00
2018-02-23T10:53:29.881Z,14.50
2018-02-23T10:54:29.860Z,13.00
2018-02-23T10:55:29.838Z,14.40
2018-02-23T10:56:29.811Z,13.50
2018-02-23T10:57:29.783Z,10.40
2018-02-23T10:58:29.767Z,13.20
2018-02-23T10:59:29.740Z,10.30
2018-02-23T11:00:29.716Z,10.80
2018-02-23T11:01:29.690Z,12.70
2018-02-23T11:02:29.667Z,13.60
2018-02-23T11:03:29.641Z,14.40
2018-02-23T11:04:29.619Z,14.90
2018-02-23T11:05:29.594Z,11.90
2018-02-23T11:06:29.570Z,12.20
2018-02-23T11:07:29.549Z,11.30
2018-02-23T11:08:29.535Z,13.00
2018-02-23T11:09:29.503Z,12.20
2018-02-23T11:10:29.479Z,12.50
2018-02-23T11:11:29.456Z,15.20
2018-02-23T11:12:29.479Z,12.70
2018-02-23T11:13:29.407Z,12.00
2018-02-23T11:14:29.379Z,11.10
2018-02-23T11:15:29.357Z,10.70
2018-02-23T11:16:29.331Z,11.90
2018-02-23T11:17:29.318Z,11.10
2018-02-23T11:18:29.290Z,10.50
2018-02-23T11:19:29.268Z,13.50
2018-02-23T11:20:29.241Z,13.50
2018-02-23T11:21:29.217Z,14.90
2018-02-23T11:22:29.196Z,13.90
2018-02-23T11:23:29.171Z,12.50
2018-02-23T11:24:29.144Z,13.70
2018-02-23T11:25:29.125Z,12.00
2018-02-23T11:26:29.101Z,15.30
2018-02-23T11:27:29.083Z,12.60
2018-02-23T11:28:29.057Z,12.90
2018-02-23T11:29:29.035Z,11.30
2018-02-23T11:30:29.059Z,14.40
2018-02-23T11:31:29.002Z,11.50
2018-02-23T11:32:28.962Z,15.60
2018-02-23T11:33:28.940Z,11.70
2018-02-23T11:34:28.917Z,14.20
2018-02-23T11:35:28.894Z,14.20
2018-02-23T11:36:28.870Z,16.10
2018-02-23T11:37:28.848Z,12.90
2018-02-23T11:38:28.823Z,11.30
2018-02-23T11:39:28.806Z,11.30
2018-02-23T11:40:28.782Z,17.20
2018-02-23T11:41:28.755Z,11.00
2018-02-23T11:42:28.733Z,13.50
2018-02-23T11:43:28.713Z,15.10
2018-02-23T11:44:28.688Z,11.50
2018-02-23T11:45:28.670Z,14.10
2018-02-23T11:46:28.641Z,12.50
2018-02-23T11:47:28.620Z,12.60
2018-02-23T11:48:28.606Z,11.90
2018-02-23T11:49:28.573Z,12.70
2018-02-23T11:50:28.581Z,13.50
2018-02-23T11:51:28.532Z,11.70
2018-02-23T11:52:28.504Z,13.90
2018-02-23T11:53:28.485Z,11.80
2018-02-23T11:54:28.459Z,12.00
2018-02-23T11:55:28.438Z,11.70
2018-02-23T11:56:28.415Z,14.00
2018-02-23T11:57:28.404Z,13.60
2018-02-23T11:58:28.369Z,13.20
2018-02-23T11:59:28.349Z,12.00
2018-02-23T12:00:28.321Z,14.30
2018-02-23T12:01:28.303Z,13.10
2018-02-23T12:02:28.280Z,11.60
2018-02-23T12:03:28.257Z,12.80
2018-02-23T12:04:28.232Z,11.20
2018-02-23T12:05:28.210Z,13.30
2018-02-23T12:06:28.199Z,12.70
2018-02-23T12:07:28.163Z,13.60
2018-02-23T12:08:28.140Z,11.60
2018-02-23T12:09:28.118Z,13.10
2018-02-23T12:10:28.098Z,15.20
2018-02-23T12:11:28.073Z,12.50
2018-02-23T12:12:28.051Z,13.00
2018-02-23T12:13:28.026Z,13.70
2018-02-23T12:14:28.004Z,14.40
2018-02-23T12:15:27.984Z,15.70
2018-02-23T12:16:27.955Z,13.00
2018-02-23T12:17:27.943Z,12.40
2018-02-23T12:18:28.215Z,13.50
2018-02-23T12:19:27.892Z,13.60
2018-02-23T12:20:27.862Z,12.50
2018-02-23T12:21:27.877Z,12.10
2018-02-23T12:22:27.818Z,13.50
2018-02-23T12:23:28.700Z,16.10
2018-02-23T12:24:27.770Z,12.70
2018-02-23T12:25:27.750Z,14.20
2018-02-23T12:26:27.724Z,14.10
2018-02-23T12:27:27.701Z,13.90
2018-02-23T12:28:27.706Z,13.30
2018-02-23T12:29:27.658Z,16.30
2018-02-23T12:30:27.937Z,13.10
2018-02-23T12:31:27.623Z,13.00
2018-02-23T12:32:27.590Z,11.20
2018-02-23T12:33:27.569Z,13.00
2018-02-23T12:34:27.547Z,13.50
2018-02-23T12:35:27.586Z,16.20
2018-02-23T12:36:27.504Z,12.90
2018-02-23T12:37:27.476Z,13.00
2018-02-23T12:38:27.455Z,12.40
2018-02-23T12:39:27.438Z,14.90
2018-02-23T12:40:27.411Z,15.30
2018-02-23T12:41:27.387Z,14.60
2018-02-23T12:42:27.368Z,11.40
2018-02-23T12:43:27.353Z,15.60
2018-02-23T12:44:27.318Z,12.80
2018-02-23T12:45:27.300Z,15.70
2018-02-23T12:46:27.273Z,14.80
2018-02-23T12:47:27.250Z,13.80
2018-02-23T12:48:27.228Z,13.40
2018-02-23T12:49:27.198Z,11.70
2018-02-23T12:50:27.185Z,13.70
2018-02-23T12:51:27.150Z,15.60
2018-02-23T12:52:27.116Z,16.00
2018-02-23T12:53:27.086Z,15.90